Time;durP1;ratioP1;P1;durP2;ratioP2;P2;SDS_P1;SDS_P2;PMS_P1;PMS_P2;Temp;Humidity;BMP_temperature;BMP_pressure;BME280_temperature;BME280_humidity;BME280_pressure;Samples;Min_cycle;Max_cycle;Signal;HPM_P1;HPM_P2
2023/07/16 00:00:12;;;;;;;11.73;7.35;;;25.00;99.90;;;;;;5111840;27;20107;-58
2023/07/16 00:02:38;;;;;;;12.10;7.97;;;24.80;99.90;;;;;;5115864;28;20036;-58
2023/07/16 00:05:05;;;;;;;10.27;7.80;;;;;;;;;;5115670;28;20383;-58
2023/07/16 00:07:31;;;;;;;7.88;7.07;;;24.70;99.90;;;;;;5115877;28;20020;-58
2023/07/16 00:09:57;;;;;;;10.02;7.20;;;24.50;99.90;;;;;;5114379;28;20023;-59
2023/07/16 00:12:23;;;;;;;9.88;7.20;;;;;;;;;;5112140;28;20064;-58
2023/07/16 00:14:49;;;;;;;8.98;7.68;;;;;;;;;;5075556;28;20062;-58
2023/07/16 00:17:15;;;;;;;11.88;8.02;;;24.40;99.90;;;;;;5095376;28;20103;-58
2023/07/16 00:19:41;;;;;;;9.38;6.90;;;24.80;99.90;;;;;;5095497;28;20527;-58
2023/07/16 00:22:07;;;;;;;8.95;7.28;;;;;;;;;;5058411;28;20550;-59
2023/07/16 00:24:33;;;;;;;8.77;7.13;;;;;;;;;;5111988;28;20445;-58
2023/07/16 00:26:59;;;;;;;10.38;7.28;;;24.90;99.90;;;;;;5092960;28;20060;-58
2023/07/16 00:29:24;;;;;;;9.15;7.18;;;25.10;99.90;;;;;;5076286;28;20443;-58
2023/07/16 00:31:50;;;;;;;12.48;6.95;;;25.10;99.90;;;;;;5059596;28;20411;-58
2023/07/16 00:34:16;;;;;;;10.45;7.43;;;25.10;99.90;;;;;;5095542;28;20035;-59
2023/07/16 00:36:41;;;;;;;10.13;8.13;;;25.30;99.90;;;;;;5090987;28;20040;-58
2023/07/16 00:39:07;;;;;;;13.40;8.07;;;25.20;99.90;;;;;;5112987;28;20130;-58
2023/07/16 00:41:33;;;;;;;13.52;7.65;;;25.00;99.90;;;;;;5115349;28;20028;-58
2023/07/16 00:43:58;;;;;;;10.20;7.40;;;24.80;99.90;;;;;;5114682;28;20066;-58
2023/07/16 00:46:24;;;;;;;11.07;6.85;;;25.00;99.90;;;;;;5113479;28;20371;-58
2023/07/16 00:48:51;;;;;;;7.88;6.75;;;;;;;;;;5072479;28;20119;-59
2023/07/16 00:51:18;;;;;;;8.25;7.32;;;;;;;;;;5113634;28;20031;-59
2023/07/16 00:53:44;;;;;;;9.05;7.38;;;24.90;99.90;;;;;;5114768;28;20031;-58
2023/07/16 00:56:11;;;;;;;9.88;7.38;;;25.20;99.90;;;;;;5114576;28;20054;-58
2023/07/16 00:58:37;;;;;;;9.70;7.43;;;;;;;;;;5112776;28;20023;-58
2023/07/16 01:01:03;;;;;;;8.30;7.28;;;25.50;99.90;;;;;;5111850;27;20034;-59
2023/07/16 01:03:29;;;;;;;7.88;6.90;;;25.50;99.90;;;;;;5114650;28;20371;-58
2023/07/16 01:06:00;;;;;;;9.10;7.25;;;25.60;99.90;;;;;;5114391;28;20020;-58
2023/07/16 01:09:01;;;;;;;9.57;7.50;;;25.60;99.90;;;;;;5114604;28;20387;-58
2023/07/16 01:11:27;;;;;;;8.80;7.18;;;25.50;99.90;;;;;;5110244;28;20031;-58
2023/07/16 01:13:53;;;;;;;10.52;7.07;;;;;;;;;;5114077;28;20038;-59
2023/07/16 01:16:24;;;;;;;9.45;7.28;;;25.40;99.90;;;;;;5113641;28;20055;-58
2023/07/16 01:18:50;;;;;;;8.93;7.72;;;25.00;99.90;;;;;;5114520;28;20073;-59
2023/07/16 01:21:19;;;;;;;9.80;7.72;;;25.10;99.90;;;;;;5114339;28;20042;-58
2023/07/16 01:24:05;;;;;;;10.35;7.45;;;25.30;99.90;;;;;;5109496;27;20448;-58
2023/07/16 01:26:49;;;;;;;9.18;6.50;;;25.50;99.90;;;;;;5107005;28;20045;-58
2023/07/16 01:29:21;;;;;;;9.32;7.80;;;25.10;99.90;;;;;;5114258;28;20028;-58
2023/07/16 01:31:50;;;;;;;8.82;7.55;;;24.80;99.90;;;;;;5114198;28;20201;-58
2023/07/16 01:34:16;;;;;;;10.70;8.13;;;24.80;99.90;;;;;;5111229;28;20086;-58
2023/07/16 01:36:44;;;;;;;9.50;7.50;;;24.90;99.90;;;;;;5112122;28;20031;-59
2023/07/16 01:39:10;;;;;;;12.45;7.35;;;;;;;;;;5095208;28;20128;-58
2023/07/16 01:41:35;;;;;;;9.18;7.32;;;24.70;99.90;;;;;;5113954;28;20081;-58
2023/07/16 01:44:01;;;;;;;10.07;8.20;;;24.80;99.90;;;;;;5113876;28;20023;-58
2023/07/16 01:46:27;;;;;;;9.55;8.30;;;;;;;;;;5112676;28;20092;-59
2023/07/16 01:48:53;;;;;;;9.27;7.43;;;;;;;;;;5091288;28;20042;-58
2023/07/16 01:51:20;;;;;;;12.25;8.60;;;;;;;;;;5113775;28;20035;-58
2023/07/16 01:53:46;;;;;;;8.82;7.20;;;;;;;;;;5114124;28;20036;-58
2023/07/16 01:56:12;;;;;;;10.75;8.23;;;;;;;;;;5113919;28;20046;-58
2023/07/16 01:58:38;;;;;;;9.48;7.45;;;;;;;;;;5111892;28;20119;-58
2023/07/16 02:01:04;;;;;;;11.60;7.88;;;;;;;;;;5110490;28;20039;-58
2023/07/16 02:03:31;;;;;;;9.10;7.18;;;;;;;;;;5091304;28;20383;-58
2023/07/16 02:05:56;;;;;;;8.88;6.60;;;25.40;99.90;;;;;;5093481;28;20107;-58
2023/07/16 02:08:22;;;;;;;7.90;6.72;;;25.60;99.90;;;;;;5093155;28;20476;-58
2023/07/16 02:10:48;;;;;;;9.10;6.93;;;25.50;99.90;;;;;;5096010;28;20080;-60
2023/07/16 02:13:14;;;;;;;11.52;7.07;;;25.60;99.90;;;;;;5073872;28;20047;-58
2023/07/16 02:15:40;;;;;;;10.20;7.53;;;25.60;99.90;;;;;;5056651;28;20404;-58
2023/07/16 02:18:06;;;;;;;9.43;7.60;;;25.60;99.90;;;;;;5093067;28;20027;-58
2023/07/16 02:20:31;;;;;;;9.18;7.03;;;25.10;99.90;;;;;;5092773;28;20016;-58
2023/07/16 02:22:57;;;;;;;7.78;6.68;;;25.70;99.90;;;;;;5098345;28;20031;-58
2023/07/16 02:25:23;;;;;;;8.73;7.00;;;25.60;99.90;;;;;;5071137;28;20079;-58
2023/07/16 02:27:49;;;;;;;8.90;7.32;;;25.50;99.90;;;;;;5108955;28;20455;-58
2023/07/16 02:30:15;;;;;;;10.40;7.32;;;25.70;99.90;;;;;;5108459;28;20485;-58
2023/07/16 02:32:41;;;;;;;9.05;6.97;;;25.60;99.90;;;;;;5108927;28;20023;-58
2023/07/16 02:35:07;;;;;;;10.23;6.60;;;25.20;99.90;;;;;;5082142;28;20134;-58
2023/07/16 02:37:33;;;;;;;8.25;6.80;;;24.90;99.90;;;;;;5082573;28;20065;-59
2023/07/16 02:39:59;;;;;;;10.77;7.47;;;24.90;99.90;;;;;;5082764;28;20550;-58
2023/07/16 02:42:26;;;;;;;8.45;6.30;;;;;;;;;;5107919;28;20428;-58
2023/07/16 02:44:52;;;;;;;9.45;6.90;;;;;;;;;;5108670;28;20069;-58
2023/07/16 02:47:18;;;;;;;10.38;7.57;;;;;;;;;;5108273;28;20028;-59
2023/07/16 02:49:44;;;;;;;7.40;6.70;;;;;;;;;;5108506;28;20031;-59
2023/07/16 02:52:10;;;;;;;11.90;7.72;;;;;;;;;;5080129;28;20451;-59
2023/07/16 02:54:36;;;;;;;10.32;6.93;;;24.60;99.90;;;;;;5066703;28;20093;-58
2023/07/16 02:57:02;;;;;;;9.15;7.20;;;;;;;;;;5088285;28;20043;-58
2023/07/16 02:59:28;;;;;;;12.00;6.90;;;;;;;;;;5108973;28;20031;-59
2023/07/16 03:01:55;;;;;;;9.40;6.72;;;;;;;;;;5089499;28;20127;-58
2023/07/16 03:04:21;;;;;;;10.18;6.63;;;;;;;;;;5108016;28;20024;-58
2023/07/16 03:06:46;;;;;;;8.50;6.95;;;24.70;99.90;;;;;;5108072;28;20040;-58
2023/07/16 03:09:13;;;;;;;8.98;6.47;;;;;;;;;;5079145;28;20043;-59
2023/07/16 03:11:38;;;;;;;8.88;6.97;;;25.10;99.90;;;;;;5108600;28;20040;-58
2023/07/16 03:14:04;;;;;;;9.77;7.03;;;;;;;;;;5090111;28;20051;-59
2023/07/16 03:16:30;;;;;;;9.98;6.95;;;;;;;;;;5088317;28;20040;-58
2023/07/16 03:18:56;;;;;;;8.00;6.72;;;;;;;;;;5108308;28;20076;-57
2023/07/16 03:21:22;;;;;;;8.43;6.82;;;24.70;99.90;;;;;;5088672;28;20039;-59
2023/07/16 03:23:48;;;;;;;8.05;6.70;;;24.60;99.90;;;;;;5093010;28;20432;-58
2023/07/16 03:38:47;;;;;;;7.50;6.70;;;24.90;99.90;;;;;;5131071;27;20409;-58
2023/07/16 03:41:13;;;;;;;8.75;6.70;;;25.30;99.90;;;;;;5110439;27;20032;-58
2023/07/16 03:43:38;;;;;;;8.38;6.43;;;25.30;99.90;;;;;;5115850;28;20392;-58
2023/07/16 03:46:07;;;;;;;8.85;7.55;;;25.40;99.90;;;;;;5111804;28;20043;-58
2023/07/16 03:48:32;;;;;;;11.40;7.35;;;25.30;99.90;;;;;;5131315;27;20034;-58
2023/07/16 03:50:58;;;;;;;9.82;7.65;;;25.30;99.90;;;;;;5127112;28;20508;-58
2023/07/16 03:53:24;;;;;;;8.00;6.80;;;25.30;99.90;;;;;;5108491;27;20058;-58
2023/07/16 03:55:50;;;;;;;11.52;7.63;;;25.20;99.90;;;;;;5110853;28;20093;-59
2023/07/16 03:58:15;;;;;;;8.80;7.03;;;24.90;99.90;;;;;;5109973;28;20028;-58
2023/07/16 04:00:41;;;;;;;11.57;7.28;;;24.80;99.90;;;;;;5110408;28;20405;-58
2023/07/16 04:03:07;;;;;;;8.43;7.07;;;24.80;99.90;;;;;;5107857;27;20059;-58
2023/07/16 04:05:33;;;;;;;11.88;7.60;;;;;;;;;;5128610;28;20023;-58
2023/07/16 04:07:59;;;;;;;9.75;7.30;;;;;;;;;;5130476;28;20035;-58
2023/07/16 04:10:25;;;;;;;9.25;6.50;;;23.80;99.90;;;;;;5130833;28;20020;-58
2023/07/16 04:12:51;;;;;;;9.77;7.60;;;23.80;99.90;;;;;;5130573;28;20542;-58
2023/07/16 04:15:16;;;;;;;12.38;7.72;;;24.00;99.90;;;;;;5116814;27;20081;-59
2023/07/16 04:17:42;;;;;;;8.77;7.88;;;24.30;99.90;;;;;;5107732;28;20084;-58
2023/07/16 04:32:14;;;;;;;12.32;9.98;;;24.60;99.90;;;;;;5110491;27;20381;-58
2023/07/16 04:34:40;;;;;;;12.45;8.32;;;25.80;99.90;;;;;;5081242;28;20467;-58
2023/07/16 04:37:06;;;;;;;9.80;8.40;;;25.80;99.90;;;;;;5090298;28;20029;-58
2023/07/16 04:39:31;;;;;;;10.40;7.95;;;25.90;99.90;;;;;;5071380;28;20050;-58
2023/07/16 04:41:57;;;;;;;12.35;8.13;;;25.90;99.90;;;;;;5090021;28;20489;-58
2023/07/16 04:44:23;;;;;;;10.52;7.88;;;25.90;99.90;;;;;;5086885;28;20107;-58
2023/07/16 04:46:48;;;;;;;8.10;7.28;;;26.00;99.90;;;;;;5067677;28;20024;-58
2023/07/16 04:49:14;;;;;;;10.75;7.28;;;26.00;99.90;;;;;;5083412;28;20032;-58
2023/07/16 04:51:40;;;;;;;12.65;9.00;;;26.00;99.90;;;;;;5069987;28;20031;-58
2023/07/16 04:54:05;;;;;;;12.15;8.07;;;26.10;99.90;;;;;;5077439;28;20093;-58
2023/07/16 04:56:31;;;;;;;11.02;8.98;;;26.10;99.90;;;;;;5080809;28;20397;-58
2023/07/16 04:58:57;;;;;;;10.45;8.18;;;26.20;99.90;;;;;;5070540;28;20043;-58
2023/07/16 05:01:23;;;;;;;9.32;8.18;;;26.20;99.90;;;;;;5054096;28;20047;-58
2023/07/16 05:03:48;;;;;;;9.73;8.32;;;26.30;99.90;;;;;;5070456;28;20032;-58
2023/07/16 05:06:14;;;;;;;9.32;8.18;;;26.40;99.90;;;;;;5087684;28;20055;-58
2023/07/16 05:08:40;;;;;;;8.60;7.43;;;26.50;99.90;;;;;;5078318;28;20055;-58
2023/07/16 05:11:06;;;;;;;15.13;7.90;;;26.70;99.90;;;;;;5070294;28;20037;-58
2023/07/16 05:13:31;;;;;;;10.65;8.35;;;26.70;99.90;;;;;;5086842;28;20028;-58
2023/07/16 05:15:57;;;;;;;10.93;8.38;;;26.80;99.90;;;;;;5087530;28;20411;-58
2023/07/16 05:18:23;;;;;;;12.55;8.50;;;;;;;;;;5087541;28;20105;-58
2023/07/16 05:20:49;;;;;;;11.43;9.70;;;27.00;99.90;;;;;;5047245;28;20052;-59
2023/07/16 05:23:15;;;;;;;10.63;8.43;;;;;;;;;;5065523;28;20435;-59
2023/07/16 05:25:48;;;;;;;11.43;8.98;;;27.20;99.90;;;;;;5068212;28;20468;-58
2023/07/16 05:28:18;;;;;;;21.75;14.50;;;27.20;99.90;;;;;;5069104;28;20031;-58
2023/07/16 05:30:44;;;;;;;15.32;11.52;;;27.40;99.90;;;;;;5068980;28;20135;-58
2023/07/16 05:33:10;;;;;;;15.45;10.27;;;;;;;;;;5054257;28;20033;-58
2023/07/16 05:35:36;;;;;;;15.23;11.02;;;27.70;99.90;;;;;;5068190;28;20546;-58
2023/07/16 05:38:02;;;;;;;14.45;9.20;;;;;;;;;;5055800;28;20029;-58
2023/07/16 05:40:29;;;;;;;11.45;8.82;;;27.60;99.90;;;;;;5056090;28;20448;-59
2023/07/16 05:42:55;;;;;;;14.27;8.30;;;;;;;;;;5055677;28;20107;-59
2023/07/16 05:45:21;;;;;;;10.50;8.57;;;;;;;;;;5052471;28;20032;-59
2023/07/16 05:47:47;;;;;;;11.30;7.70;;;28.00;99.90;;;;;;5048612;28;20124;-58
2023/07/16 05:50:12;;;;;;;12.23;8.55;;;27.90;99.90;;;;;;5074581;28;20453;-59
2023/07/16 05:52:38;;;;;;;15.60;9.52;;;28.00;99.90;;;;;;5094528;28;20028;-58
2023/07/16 05:55:04;;;;;;;13.30;8.38;;;;;;;;;;5057072;28;20083;-58
2023/07/16 05:57:30;;;;;;;12.02;8.57;;;28.40;99.90;;;;;;5033609;28;20503;-58
2023/07/16 05:59:56;;;;;;;11.85;9.07;;;;;;;;;;5065057;28;20040;-59
2023/07/16 06:02:22;;;;;;;10.45;7.85;;;28.50;99.90;;;;;;5070794;28;20419;-59
2023/07/16 06:04:48;;;;;;;10.60;8.43;;;28.50;99.90;;;;;;5095890;28;20027;-58
2023/07/16 06:07:14;;;;;;;10.82;7.63;;;;;;;;;;5095112;28;20494;-59
2023/07/16 06:09:40;;;;;;;10.23;7.75;;;;;;;;;;5054414;28;20153;-59
2023/07/16 06:12:06;;;;;;;10.65;7.65;;;28.90;99.90;;;;;;5048959;28;20082;-58
2023/07/16 06:14:32;;;;;;;11.48;8.18;;;;;;;;;;5095616;28;20469;-58
2023/07/16 06:16:58;;;;;;;10.98;8.65;;;;;;;;;;5095276;28;20386;-58
2023/07/16 06:19:24;;;;;;;11.05;8.65;;;;;;;;;;5094776;28;20463;-58
2023/07/16 06:21:50;;;;;;;14.32;7.90;;;29.30;99.90;;;;;;5063771;28;20052;-59
2023/07/16 06:24:15;;;;;;;10.95;8.13;;;29.30;99.90;;;;;;5069281;28;20033;-58
2023/07/16 06:26:41;;;;;;;10.00;8.35;;;29.20;99.90;;;;;;5073763;28;20100;-59
2023/07/16 06:29:07;;;;;;;11.00;8.07;;;29.20;99.90;;;;;;5072858;28;20032;-58
2023/07/16 06:31:33;;;;;;;12.45;9.05;;;29.30;99.90;;;;;;5055793;28;20048;-59
2023/07/16 06:33:59;;;;;;;11.05;7.20;;;29.30;99.90;;;;;;5052737;28;20452;-59
2023/07/16 06:36:25;;;;;;;10.93;7.57;;;;;;;;;;5054465;28;20068;-58
2023/07/16 06:38:51;;;;;;;8.57;7.32;;;;;;;;;;5054294;28;20420;-59
2023/07/16 06:41:18;;;;;;;13.65;8.23;;;;;;;;;;5054544;28;20448;-59
2023/07/16 06:43:43;;;;;;;10.88;7.57;;;29.80;99.90;;;;;;5051974;28;20432;-59
2023/07/16 06:46:10;;;;;;;8.35;7.07;;;;;;;;;;5053328;28;20051;-59
2023/07/16 06:48:36;;;;;;;8.68;7.35;;;;;;;;;;5052612;28;20503;-58
2023/07/16 06:51:02;;;;;;;10.65;7.53;;;;;;;;;;5054221;28;20520;-59
2023/07/16 06:53:27;;;;;;;11.30;7.68;;;30.30;99.90;;;;;;5066503;28;20067;-58
2023/07/16 06:55:53;;;;;;;10.88;7.20;;;30.00;99.90;;;;;;5065884;28;20060;-58
2023/07/16 06:58:19;;;;;;;10.18;8.15;;;30.30;99.90;;;;;;5053279;28;20024;-57
2023/07/16 07:00:44;;;;;;;13.25;7.53;;;30.30;99.90;;;;;;5063236;28;20032;-58
2023/07/16 07:03:10;;;;;;;8.38;6.40;;;30.40;99.90;;;;;;5073501;28;20028;-58
2023/07/16 07:05:36;;;;;;;10.50;7.00;;;;;;;;;;5073566;28;20024;-57
2023/07/16 07:08:03;;;;;;;9.73;7.70;;;;;;;;;;5067692;28;20403;-57
2023/07/16 07:10:29;;;;;;;11.85;7.10;;;;;;;;;;5064505;28;20025;-57
2023/07/16 07:12:55;;;;;;;9.35;7.15;;;;;;;;;;5073534;28;20082;-57
2023/07/16 07:15:21;;;;;;;7.68;6.28;;;30.90;99.90;;;;;;5073382;28;20376;-58
2023/07/16 07:17:48;;;;;;;9.70;7.30;;;;;;;;;;5073468;28;20024;-57
2023/07/16 07:20:14;;;;;;;9.98;7.10;;;31.10;99.90;;;;;;5071965;28;20044;-59
2023/07/16 07:22:40;;;;;;;8.65;7.30;;;31.20;99.90;;;;;;5060477;28;20040;-58
2023/07/16 07:25:06;;;;;;;9.60;7.43;;;31.10;99.90;;;;;;5071253;28;20383;-58
2023/07/16 07:27:31;;;;;;;8.90;8.00;;;31.20;99.90;;;;;;5073729;28;20383;-58
2023/07/16 07:29:57;;;;;;;9.68;8.10;;;31.40;99.90;;;;;;5073221;28;20021;-57
2023/07/16 07:32:23;;;;;;;10.65;7.38;;;31.50;99.90;;;;;;5064866;28;20271;-59
2023/07/16 07:34:49;;;;;;;9.07;6.97;;;31.80;99.90;;;;;;5052749;28;20064;-57
2023/07/16 07:37:15;;;;;;;10.73;7.50;;;31.70;99.90;;;;;;5053504;28;20096;-58
2023/07/16 07:39:41;;;;;;;10.85;8.27;;;31.80;99.90;;;;;;5053477;28;20037;-57
2023/07/16 07:42:07;;;;;;;8.73;7.80;;;32.00;99.90;;;;;;5053620;28;20025;-57
2023/07/16 07:44:33;;;;;;;11.68;7.65;;;31.90;99.90;;;;;;5052104;28;20083;-58
2023/07/16 07:46:59;;;;;;;12.85;8.38;;;;;;;;;;5063204;28;20035;-57
2023/07/16 07:49:25;;;;;;;9.77;7.53;;;32.30;99.90;;;;;;5051483;28;20044;-57
2023/07/16 07:51:51;;;;;;;11.93;7.78;;;32.30;99.90;;;;;;5053342;28;20047;-57
2023/07/16 07:54:17;;;;;;;11.02;7.85;;;;;;;;;;5050643;28;20048;-58
2023/07/16 07:56:43;;;;;;;12.57;8.48;;;;;;;;;;5059538;28;20047;-57
2023/07/16 07:59:09;;;;;;;11.27;8.18;;;;;;;;;;5070088;28;20099;-57
2023/07/16 08:01:35;;;;;;;11.18;7.60;;;;;;;;;;5073112;28;20032;-57
2023/07/16 08:04:02;;;;;;;9.93;8.70;;;;;;;;;;5072933;28;20025;-57
2023/07/16 08:06:27;;;;;;;12.50;8.27;;;33.20;99.90;;;;;;5061736;28;20028;-57
2023/07/16 08:08:53;;;;;;;11.52;8.55;;;32.90;99.90;;;;;;5052740;28;20472;-57
2023/07/16 08:11:19;;;;;;;10.70;9.13;;;32.90;99.90;;;;;;5052951;28;20142;-57
2023/07/16 08:13:44;;;;;;;10.75;8.38;;;32.90;99.90;;;;;;5051392;28;20041;-57
2023/07/16 08:16:10;;;;;;;10.98;9.57;;;;;;;;;;5050522;28;20044;-58
2023/07/16 08:18:36;;;;;;;12.32;8.90;;;;;;;;;;5050301;28;20091;-57
2023/07/16 08:21:03;;;;;;;9.70;8.48;;;;;;;;;;5066028;28;20472;-57
2023/07/16 08:23:29;;;;;;;11.85;8.63;;;;;;;;;;5053278;28;20025;-57
2023/07/16 08:25:55;;;;;;;11.23;8.95;;;;;;;;;;5067504;28;20041;-57
2023/07/16 08:28:20;;;;;;;11.00;8.93;;;33.60;99.90;;;;;;5052592;28;20028;-58
2023/07/16 08:30:47;;;;;;;12.05;9.52;;;33.80;99.90;;;;;;5053179;28;20063;-56
2023/07/16 08:33:14;;;;;;;14.25;8.68;;;33.90;99.90;;;;;;5071830;28;20047;-57
2023/07/16 08:35:41;;;;;;;11.88;9.38;;;;;;;;;;5072605;28;20036;-57
2023/07/16 08:38:09;;;;;;;12.70;9.18;;;34.20;99.90;;;;;;5070312;28;20094;-57
2023/07/16 08:40:37;;;;;;;13.98;9.52;;;34.20;99.90;;;;;;5069645;28;20147;-58
2023/07/16 08:43:06;;;;;;;13.02;9.38;;;;;;;;;;5050145;28;20112;-57
2023/07/16 08:45:39;;;;;;;11.20;8.82;;;34.40;99.90;;;;;;5053104;28;20456;-57
2023/07/16 08:48:06;;;;;;;10.95;9.43;;;34.50;99.90;;;;;;5061917;28;20037;-57
2023/07/16 08:50:34;;;;;;;14.77;9.93;;;34.50;99.90;;;;;;5072527;28;20054;-57
2023/07/16 08:53:01;;;;;;;10.88;8.88;;;34.80;99.90;;;;;;5066825;28;20124;-59
2023/07/16 08:55:27;;;;;;;11.30;9.55;;;34.80;99.90;;;;;;5037145;28;20045;-57
2023/07/16 08:57:53;;;;;;;14.38;9.35;;;34.90;99.90;;;;;;5064237;28;20116;-56
2023/07/16 09:00:20;;;;;;;11.45;9.45;;;;;;;;;;5072421;28;20077;-58
2023/07/16 09:02:46;;;;;;;12.80;10.27;;;35.30;99.90;;;;;;5071813;28;20025;-58
2023/07/16 09:05:14;;;;;;;10.68;9.20;;;35.40;99.90;;;;;;5031507;28;20068;-58
2023/07/16 09:07:40;;;;;;;10.32;8.60;;;35.40;99.90;;;;;;5059967;28;20032;-57
2023/07/16 09:10:06;;;;;;;11.25;9.65;;;35.60;99.90;;;;;;5056092;28;20025;-58
2023/07/16 09:12:32;;;;;;;12.38;9.70;;;35.80;99.90;;;;;;5068836;28;20379;-57
2023/07/16 09:14:58;;;;;;;15.60;9.35;;;;;;;;;;5076049;28;20025;-57
2023/07/16 09:17:25;;;;;;;10.10;9.10;;;;;;;;;;5063983;28;20362;-58
2023/07/16 09:19:51;;;;;;;13.20;9.95;;;35.90;99.90;;;;;;5071018;28;20108;-57
2023/07/16 09:22:20;;;;;;;11.20;10.00;;;36.20;99.90;;;;;;5075686;28;20563;-57
2023/07/16 09:24:47;;;;;;;15.55;10.15;;;36.20;99.90;;;;;;5076351;28;20074;-57
2023/07/16 09:27:14;;;;;;;11.23;9.52;;;;;;;;;;5075890;28;20529;-57
2023/07/16 09:29:40;;;;;;;13.85;10.18;;;36.10;99.90;;;;;;5059134;28;20033;-58
2023/07/16 09:32:06;;;;;;;12.63;10.25;;;36.50;99.90;;;;;;5061324;28;20055;-57
2023/07/16 09:34:32;;;;;;;13.63;11.55;;;36.60;99.90;;;;;;5020689;28;20037;-58
2023/07/16 09:36:59;;;;;;;12.07;10.68;;;36.60;99.90;;;;;;5068199;28;20024;-57
2023/07/16 09:39:26;;;;;;;13.52;12.23;;;36.50;99.90;;;;;;5070775;28;20048;-58
2023/07/16 09:41:52;;;;;;;14.25;12.75;;;36.70;99.90;;;;;;5056727;28;20043;-57
2023/07/16 09:44:18;;;;;;;13.35;11.20;;;36.80;99.90;;;;;;5045988;28;20033;-58
2023/07/16 09:46:45;;;;;;;13.27;11.68;;;37.00;99.90;;;;;;5046391;28;20056;-57
2023/07/16 09:49:11;;;;;;;13.60;12.05;;;36.60;99.90;;;;;;5069516;28;20039;-58
2023/07/16 09:51:38;;;;;;;12.98;11.63;;;36.90;99.90;;;;;;5062282;28;20037;-56
2023/07/16 09:54:05;;;;;;;14.40;10.68;;;37.10;99.90;;;;;;5060259;28;20036;-58
2023/07/16 09:56:48;;;;;;;13.13;11.70;;;37.40;99.90;;;;;;5066661;28;20487;-57
2023/07/16 09:59:16;;;;;;;14.77;12.20;;;37.30;99.90;;;;;;5069118;28;20033;-56
2023/07/16 10:01:42;;;;;;;14.30;11.60;;;37.50;99.90;;;;;;5069656;28;20090;-58
2023/07/16 10:04:15;;;;;;;13.30;11.13;;;;;;;;;;5060750;28;20474;-58
2023/07/16 10:06:51;;;;;;;11.70;10.52;;;;;;;;;;5054305;28;20032;-57
2023/07/16 10:09:54;;;;;;;16.30;11.98;;;37.50;99.90;;;;;;5069650;28;20471;-59
2023/07/16 10:12:20;;;;;;;12.48;10.85;;;37.40;99.90;;;;;;5029619;28;20030;-57
2023/07/16 10:14:51;;;;;;;13.57;12.15;;;37.60;99.90;;;;;;4991161;28;20045;-55
2023/07/16 10:17:22;;;;;;;12.18;10.88;;;37.80;99.90;;;;;;5030530;28;20452;-58
2023/07/16 10:19:57;;;;;;;12.45;10.35;;;37.90;99.90;;;;;;4996245;28;20408;-56
2023/07/16 10:22:42;;;;;;;13.45;10.73;;;37.80;99.90;;;;;;5031549;28;20057;-56
2023/07/16 10:25:17;;;;;;;18.48;9.73;;;37.90;99.90;;;;;;5039217;28;20029;-56
2023/07/16 10:27:44;;;;;;;12.65;11.45;;;37.60;99.90;;;;;;5032320;28;20497;-58
2023/07/16 10:30:10;;;;;;;13.45;10.95;;;37.70;99.90;;;;;;5027644;28;20516;-58
2023/07/16 10:32:36;;;;;;;13.88;11.68;;;37.90;99.90;;;;;;4999374;28;20045;-57
2023/07/16 10:35:03;;;;;;;13.00;11.50;;;;;;;;;;5032376;28;20025;-58
2023/07/16 10:37:29;;;;;;;12.27;11.00;;;;;;;;;;5032617;28;20101;-57
2023/07/16 10:39:57;;;;;;;12.07;10.80;;;38.40;99.90;;;;;;5032599;28;20522;-58
2023/07/16 10:42:24;;;;;;;12.02;10.68;;;38.20;99.90;;;;;;5027454;28;20112;-56
2023/07/16 10:44:54;;;;;;;13.07;11.77;;;38.40;99.90;;;;;;5032058;28;20026;-56
2023/07/16 10:47:25;;;;;;;13.30;11.20;;;38.20;99.90;;;;;;5053324;28;20036;-58
2023/07/16 10:49:54;;;;;;;13.75;12.27;;;38.10;99.90;;;;;;5054483;28;20446;-57
2023/07/16 10:52:23;;;;;;;12.55;11.25;;;38.30;99.90;;;;;;5054487;28;20468;-56
2023/07/16 10:54:51;;;;;;;13.48;11.65;;;38.50;99.90;;;;;;5049349;28;20048;-58
2023/07/16 10:57:19;;;;;;;12.75;11.35;;;38.30;99.90;;;;;;5054614;28;20029;-56
2023/07/16 10:59:45;;;;;;;13.25;10.90;;;38.30;99.90;;;;;;5054452;28;20036;-55
2023/07/16 11:02:12;;;;;;;11.90;10.40;;;38.50;99.90;;;;;;5054203;28;20476;-56
2023/07/16 11:04:38;;;;;;;12.38;10.88;;;38.50;99.90;;;;;;5054187;28;20031;-56
2023/07/16 11:07:09;;;;;;;13.23;10.45;;;38.50;99.90;;;;;;5050863;28;20039;-56
2023/07/16 11:09:41;;;;;;;13.20;10.43;;;39.00;99.90;;;;;;5054060;28;20029;-56
2023/07/16 11:12:11;;;;;;;12.40;11.18;;;39.10;99.90;;;;;;5054093;28;20033;-58
2023/07/16 11:14:38;;;;;;;11.93;10.68;;;39.20;99.90;;;;;;5054140;28;20032;-58
2023/07/16 11:17:08;;;;;;;12.75;10.40;;;39.00;99.90;;;;;;5051287;28;20033;-58
2023/07/16 11:19:35;;;;;;;12.35;11.05;;;39.50;99.90;;;;;;5053398;28;20025;-57
2023/07/16 11:22:03;;;;;;;17.67;11.18;;;39.60;99.90;;;;;;5053284;28;20033;-56
2023/07/16 11:24:36;;;;;;;12.25;10.82;;;;;;;;;;5053767;28;20025;-57
2023/07/16 11:27:02;;;;;;;11.10;9.88;;;39.80;99.90;;;;;;5053462;28;20108;-58
2023/07/16 11:29:36;;;;;;;13.57;10.75;;;39.30;99.90;;;;;;5048689;28;20075;-57
2023/07/16 11:32:02;;;;;;;11.48;10.27;;;39.50;99.90;;;;;;5053278;28;20055;-58
2023/07/16 11:34:27;;;;;;;10.07;9.07;;;39.60;99.90;;;;;;5053716;28;20021;-58
2023/07/16 11:36:53;;;;;;;10.77;9.77;;;;;;;;;;5053536;28;20025;-58
2023/07/16 11:39:20;;;;;;;10.35;8.07;;;39.70;99.90;;;;;;5053099;28;20017;-56
2023/07/16 11:41:58;;;;;;;8.65;7.75;;;39.80;99.90;;;;;;5050397;28;20032;-56
2023/07/16 11:44:24;;;;;;;8.27;7.47;;;;;;;;;;5063141;28;20496;-56
2023/07/16 11:46:50;;;;;;;9.63;8.55;;;;;;;;;;5073313;28;20036;-57
2023/07/16 11:49:16;;;;;;;9.75;7.85;;;40.30;99.90;;;;;;5072984;28;20471;-57
2023/07/16 11:51:44;;;;;;;15.02;6.88;;;39.70;98.10;;;;;;5073362;28;20028;-56
2023/07/16 11:54:11;;;;;;;11.70;6.70;;;40.00;96.40;;;;;;5056142;28;20032;-56
2023/07/16 11:56:36;;;;;;;11.57;7.53;;;40.00;96.00;;;;;;5066732;28;20558;-56
2023/07/16 11:59:02;;;;;;;8.82;7.95;;;40.30;96.70;;;;;;5050576;28;20033;-55
2023/07/16 12:01:28;;;;;;;9.75;8.63;;;;;;;;;;5051087;28;20068;-56
2023/07/16 12:03:54;;;;;;;10.55;9.45;;;37.20;96.70;;;;;;5053344;28;20118;-57
2023/07/16 12:06:19;;;;;;;9.30;8.20;;;39.80;99.90;;;;;;5050370;28;20063;-57
2023/07/16 12:08:46;;;;;;;11.48;7.68;;;;;;;;;;5065320;28;20037;-58
2023/07/16 12:11:12;;;;;;;9.95;8.23;;;;;;;;;;5052957;28;20518;-57
2023/07/16 12:13:37;;;;;;;10.68;7.40;;;40.40;95.00;;;;;;5053734;28;20499;-58
2023/07/16 12:16:03;;;;;;;7.75;6.55;;;40.30;95.30;;;;;;5053134;28;20029;-58
2023/07/16 12:18:30;;;;;;;9.20;7.25;;;40.40;94.80;;;;;;5049847;28;20082;-59
2023/07/16 12:20:56;;;;;;;9.77;7.70;;;40.10;94.30;;;;;;5052429;28;20426;-57
2023/07/16 12:23:22;;;;;;;8.73;7.45;;;39.80;93.90;;;;;;5050885;28;20033;-57
2023/07/16 12:25:49;;;;;;;9.73;8.75;;;39.80;93.90;;;;;;5052891;28;20452;-56
2023/07/16 12:28:15;;;;;;;10.93;8.65;;;39.90;95.40;;;;;;5053197;28;20104;-58
2023/07/16 12:30:41;;;;;;;9.40;8.50;;;40.20;96.10;;;;;;5049196;28;20136;-56
2023/07/16 12:33:07;;;;;;;9.30;8.30;;;40.20;95.20;;;;;;5052917;28;20032;-57
2023/07/16 12:35:32;;;;;;;10.50;9.40;;;40.40;95.20;;;;;;5034363;28;20447;-56
2023/07/16 12:37:58;;;;;;;17.10;9.18;;;40.60;96.10;;;;;;5052852;28;20021;-56
2023/07/16 12:40:29;;;;;;;9.52;8.63;;;40.60;96.00;;;;;;5052014;28;20473;-57
2023/07/16 12:42:55;;;;;;;10.93;9.10;;;40.30;94.70;;;;;;5053929;28;20036;-57
2023/07/16 12:45:20;;;;;;;11.57;8.18;;;40.10;94.80;;;;;;5056723;28;20427;-56
2023/07/16 12:47:46;;;;;;;7.78;6.97;;;40.20;94.30;;;;;;5056722;28;20084;-58
2023/07/16 12:50:12;;;;;;;7.20;6.45;;;40.10;93.00;;;;;;5056613;28;20049;-57
2023/07/16 12:52:38;;;;;;;10.15;7.00;;;40.10;93.20;;;;;;5055776;28;20052;-57
2023/07/16 13:09:38;;;;;;;7.13;5.05;;;39.90;92.80;;;;;;5109585;27;20381;-57
2023/07/16 13:12:04;;;;;;;6.05;5.45;;;41.10;91.40;;;;;;5110360;28;20383;-55
2023/07/16 13:14:30;;;;;;;9.30;6.20;;;40.70;91.40;;;;;;5110679;28;20020;-58
2023/07/16 13:16:55;;;;;;;7.05;5.10;;;40.70;90.70;;;;;;5091877;28;20035;-57
2023/07/16 13:19:21;;;;;;;6.53;4.90;;;40.80;90.00;;;;;;5091952;28;20040;-58
2023/07/16 13:21:47;;;;;;;5.57;4.88;;;40.60;90.70;;;;;;5110714;28;20034;-56
2023/07/16 13:24:13;;;;;;;5.78;5.03;;;40.50;90.70;;;;;;5110982;28;20028;-57
2023/07/16 13:26:39;;;;;;;6.70;5.28;;;40.60;90.80;;;;;;5110585;28;20156;-57
2023/07/16 13:29:05;;;;;;;8.48;4.95;;;40.80;90.60;;;;;;5110447;28;20491;-56
2023/07/16 13:31:30;;;;;;;5.90;4.53;;;41.10;91.20;;;;;;5110459;28;20020;-56
2023/07/16 13:33:56;;;;;;;7.93;5.25;;;40.90;89.70;;;;;;5110535;28;20463;-57
2023/07/16 13:36:22;;;;;;;8.77;5.80;;;41.20;89.60;;;;;;5110417;28;20494;-57
2023/07/16 13:38:47;;;;;;;7.18;4.97;;;41.40;89.30;;;;;;5109723;28;20111;-58
2023/07/16 13:41:13;;;;;;;6.40;4.10;;;41.60;89.10;;;;;;5109712;28;20044;-58